sensor_id;sensor_type;location;lat;lon;timestamp;pressure;altitude;pressure_sealevel;temperature;humidity
68301;BME280;55146;47.468;18.806;2023-07-30T00:01:11;99623.06;;;21.61;85.87
68301;BME280;55146;47.468;18.806;2023-07-30T00:03:36;99622.25;;;21.61;85.86
68301;BME280;55146;47.468;18.806;2023-07-30T00:06:02;99622.16;;;21.57;85.98
68301;BME280;55146;47.468;18.806;2023-07-30T00:08:27;99617.25;;;21.54;85.99
68301;BME280;55146;47.468;18.806;2023-07-30T00:13:18;99612.87;;;21.53;86.01
68301;BME280;55146;47.468;18.806;2023-07-30T00:15:46;99613.56;;;21.50;86.11
68301;BME280;55146;47.468;18.806;2023-07-30T00:18:12;99609.59;;;21.51;86.17
68301;BME280;55146;47.468;18.806;2023-07-30T00:20:37;99609.31;;;21.41;85.60
68301;BME280;55146;47.468;18.806;2023-07-30T00:23:03;99611.53;;;21.07;86.36
68301;BME280;55146;47.468;18.806;2023-07-30T00:25:28;99612.16;;;21.00;86.39
68301;BME280;55146;47.468;18.806;2023-07-30T00:27:53;99618.00;;;20.95;86.16
68301;BME280;55146;47.468;18.806;2023-07-30T00:30:19;99614.59;;;21.02;86.19
68301;BME280;55146;47.468;18.806;2023-07-30T00:32:44;99610.31;;;20.92;86.86
68301;BME280;55146;47.468;18.806;2023-07-30T00:35:10;99614.38;;;20.95;86.27
68301;BME280;55146;47.468;18.806;2023-07-30T00:37:36;99618.66;;;20.77;87.40
68301;BME280;55146;47.468;18.806;2023-07-30T00:40:02;99618.56;;;20.73;87.82
68301;BME280;55146;47.468;18.806;2023-07-30T00:42:28;99608.06;;;20.70;87.86
68301;BME280;55146;47.468;18.806;2023-07-30T00:44:53;99604.13;;;20.59;88.53
68301;BME280;55146;47.468;18.806;2023-07-30T00:47:19;99606.97;;;20.47;88.86
68301;BME280;55146;47.468;18.806;2023-07-30T00:49:45;99598.94;;;20.33;89.52
68301;BME280;55146;47.468;18.806;2023-07-30T00:52:11;99592.19;;;20.34;89.38
68301;BME280;55146;47.468;18.806;2023-07-30T00:54:36;99588.94;;;20.32;88.77
68301;BME280;55146;47.468;18.806;2023-07-30T00:57:03;99587.75;;;20.21;89.44
68301;BME280;55146;47.468;18.806;2023-07-30T00:59:29;99580.28;;;20.25;89.47
68301;BME280;55146;47.468;18.806;2023-07-30T01:01:56;99587.78;;;20.33;89.25
68301;BME280;55146;47.468;18.806;2023-07-30T01:04:22;99586.34;;;20.27;89.29
68301;BME280;55146;47.468;18.806;2023-07-30T01:06:47;99589.63;;;20.41;89.07
68301;BME280;55146;47.468;18.806;2023-07-30T01:09:13;99593.09;;;20.50;88.46
68301;BME280;55146;47.468;18.806;2023-07-30T01:11:39;99591.31;;;20.58;88.02
68301;BME280;55146;47.468;18.806;2023-07-30T01:14:05;99580.25;;;20.62;87.29
68301;BME280;55146;47.468;18.806;2023-07-30T01:16:31;99579.53;;;20.65;87.31
68301;BME280;55146;47.468;18.806;2023-07-30T01:18:56;99560.44;;;20.67;87.26
68301;BME280;55146;47.468;18.806;2023-07-30T01:21:24;99552.50;;;20.69;86.44
68301;BME280;55146;47.468;18.806;2023-07-30T01:23:49;99555.62;;;20.79;86.19
68301;BME280;55146;47.468;18.806;2023-07-30T01:26:21;99545.91;;;20.89;85.83
68301;BME280;55146;47.468;18.806;2023-07-30T01:28:49;99540.16;;;20.97;85.37
68301;BME280;55146;47.468;18.806;2023-07-30T01:31:17;99537.09;;;21.03;85.34
68301;BME280;55146;47.468;18.806;2023-07-30T01:33:46;99536.03;;;21.07;84.99
68301;BME280;55146;47.468;18.806;2023-07-30T01:36:15;99532.97;;;21.12;84.71
68301;BME280;55146;47.468;18.806;2023-07-30T01:38:42;99530.97;;;21.13;84.41
68301;BME280;55146;47.468;18.806;2023-07-30T01:41:08;99532.28;;;21.15;84.31
68301;BME280;55146;47.468;18.806;2023-07-30T01:43:33;99537.38;;;21.13;84.15
68301;BME280;55146;47.468;18.806;2023-07-30T01:45:59;99527.00;;;21.14;84.07
68301;BME280;55146;47.468;18.806;2023-07-30T01:48:24;99539.00;;;21.14;84.13
68301;BME280;55146;47.468;18.806;2023-07-30T01:50:49;99538.69;;;21.16;84.19
68301;BME280;55146;47.468;18.806;2023-07-30T01:53:15;99541.81;;;21.14;84.22
68301;BME280;55146;47.468;18.806;2023-07-30T01:55:40;99530.53;;;21.11;84.45
68301;BME280;55146;47.468;18.806;2023-07-30T01:58:09;99527.28;;;21.09;84.54
68301;BME280;55146;47.468;18.806;2023-07-30T02:00:34;99528.44;;;21.08;84.61
68301;BME280;55146;47.468;18.806;2023-07-30T02:02:59;99533.22;;;21.07;84.38
68301;BME280;55146;47.468;18.806;2023-07-30T02:05:25;99539.62;;;21.08;84.00
68301;BME280;55146;47.468;18.806;2023-07-30T02:07:50;99544.88;;;21.09;84.03
68301;BME280;55146;47.468;18.806;2023-07-30T02:10:15;99540.91;;;21.10;84.11
68301;BME280;55146;47.468;18.806;2023-07-30T02:12:41;99543.59;;;21.07;83.94
68301;BME280;55146;47.468;18.806;2023-07-30T02:15:07;99527.16;;;21.05;83.84
68301;BME280;55146;47.468;18.806;2023-07-30T02:17:32;99519.59;;;21.06;83.97
68301;BME280;55146;47.468;18.806;2023-07-30T02:19:57;99522.38;;;21.06;84.29
68301;BME280;55146;47.468;18.806;2023-07-30T02:22:23;99529.16;;;21.05;84.42
68301;BME280;55146;47.468;18.806;2023-07-30T02:24:48;99519.16;;;21.04;84.48
68301;BME280;55146;47.468;18.806;2023-07-30T02:27:13;99524.38;;;21.05;84.75
68301;BME280;55146;47.468;18.806;2023-07-30T02:29:38;99523.56;;;21.05;84.83
68301;BME280;55146;47.468;18.806;2023-07-30T02:32:04;99530.34;;;21.04;84.70
68301;BME280;55146;47.468;18.806;2023-07-30T02:34:30;99527.91;;;21.02;84.82
68301;BME280;55146;47.468;18.806;2023-07-30T02:36:55;99539.78;;;20.99;84.91
68301;BME280;55146;47.468;18.806;2023-07-30T02:39:21;99527.78;;;20.98;84.91
68301;BME280;55146;47.468;18.806;2023-07-30T02:41:46;99527.78;;;20.98;85.23
68301;BME280;55146;47.468;18.806;2023-07-30T02:44:11;99542.16;;;20.97;85.34
68301;BME280;55146;47.468;18.806;2023-07-30T02:46:37;99549.72;;;20.96;85.08
68301;BME280;55146;47.468;18.806;2023-07-30T02:49:02;99539.69;;;20.95;84.89
68301;BME280;55146;47.468;18.806;2023-07-30T02:51:27;99537.25;;;20.94;84.72
68301;BME280;55146;47.468;18.806;2023-07-30T02:53:57;99536.81;;;20.92;84.67
68301;BME280;55146;47.468;18.806;2023-07-30T02:56:24;99529.22;;;20.92;84.67
68301;BME280;55146;47.468;18.806;2023-07-30T02:58:50;99530.84;;;20.93;84.76
68301;BME280;55146;47.468;18.806;2023-07-30T03:01:15;99544.81;;;20.93;84.78
68301;BME280;55146;47.468;18.806;2023-07-30T03:03:41;99544.00;;;20.93;84.77
68301;BME280;55146;47.468;18.806;2023-07-30T03:06:06;99538.88;;;20.95;84.90
68301;BME280;55146;47.468;18.806;2023-07-30T03:08:32;99538.06;;;20.94;84.97
68301;BME280;55146;47.468;18.806;2023-07-30T03:10:58;99532.47;;;20.94;85.20
68301;BME280;55146;47.468;18.806;2023-07-30T03:13:24;99535.63;;;20.93;85.29
68301;BME280;55146;47.468;18.806;2023-07-30T03:15:49;99537.59;;;20.92;85.24
68301;BME280;55146;47.468;18.806;2023-07-30T03:18:15;99547.19;;;20.91;85.25
68301;BME280;55146;47.468;18.806;2023-07-30T03:20:40;99557.16;;;20.92;85.22
68301;BME280;55146;47.468;18.806;2023-07-30T03:23:05;99553.22;;;20.93;85.56
68301;BME280;55146;47.468;18.806;2023-07-30T03:25:31;99552.41;;;20.93;85.71
68301;BME280;55146;47.468;18.806;2023-07-30T03:27:56;99552.78;;;20.91;85.88
68301;BME280;55146;47.468;18.806;2023-07-30T03:30:21;99558.00;;;20.93;86.17
68301;BME280;55146;47.468;18.806;2023-07-30T03:32:47;99567.19;;;20.93;86.57
68301;BME280;55146;47.468;18.806;2023-07-30T03:35:12;99569.56;;;20.91;86.51
68301;BME280;55146;47.468;18.806;2023-07-30T03:37:37;99567.09;;;20.90;86.27
68301;BME280;55146;47.468;18.806;2023-07-30T03:40:03;99563.97;;;20.91;86.04
68301;BME280;55146;47.468;18.806;2023-07-30T03:42:29;99576.31;;;20.90;86.06
68301;BME280;55146;47.468;18.806;2023-07-30T03:44:54;99575.16;;;20.91;85.94
68301;BME280;55146;47.468;18.806;2023-07-30T03:47:19;99573.16;;;20.92;85.81
68301;BME280;55146;47.468;18.806;2023-07-30T03:49:45;99566.37;;;20.93;85.88
68301;BME280;55146;47.468;18.806;2023-07-30T03:52:10;99563.59;;;20.93;85.59
68301;BME280;55146;47.468;18.806;2023-07-30T03:54:35;99563.59;;;20.93;85.41
68301;BME280;55146;47.468;18.806;2023-07-30T03:57:01;99571.97;;;20.93;85.14
68301;BME280;55146;47.468;18.806;2023-07-30T03:59:26;99570.72;;;20.90;84.80
68301;BME280;55146;47.468;18.806;2023-07-30T04:01:53;99570.72;;;20.90;84.67
68301;BME280;55146;47.468;18.806;2023-07-30T04:04:19;99576.31;;;20.90;84.51
68301;BME280;55146;47.468;18.806;2023-07-30T04:06:44;99580.38;;;20.93;84.34
68301;BME280;55146;47.468;18.806;2023-07-30T04:09:09;99579.19;;;20.94;83.97
68301;BME280;55146;47.468;18.806;2023-07-30T04:11:35;99576.41;;;20.94;83.64
68301;BME280;55146;47.468;18.806;2023-07-30T04:14:00;99578.03;;;20.95;83.46
68301;BME280;55146;47.468;18.806;2023-07-30T04:16:25;99581.28;;;20.97;83.59
68301;BME280;55146;47.468;18.806;2023-07-30T04:18:51;99577.56;;;20.93;83.77
68301;BME280;55146;47.468;18.806;2023-07-30T04:21:16;99585.94;;;20.93;84.40
68301;BME280;55146;47.468;18.806;2023-07-30T04:23:41;99578.75;;;20.92;84.76
68301;BME280;55146;47.468;18.806;2023-07-30T04:26:07;99573.25;;;20.95;85.13
68301;BME280;55146;47.468;18.806;2023-07-30T04:28:32;99577.34;;;20.98;85.26
68301;BME280;55146;47.468;18.806;2023-07-30T04:30:58;99578.25;;;21.02;85.36
68301;BME280;55146;47.468;18.806;2023-07-30T04:33:23;99577.41;;;21.02;85.23
68301;BME280;55146;47.468;18.806;2023-07-30T04:35:49;99582.66;;;21.03;85.19
68301;BME280;55146;47.468;18.806;2023-07-30T04:38:14;99582.75;;;21.07;85.08
68301;BME280;55146;47.468;18.806;2023-07-30T04:40:40;99582.06;;;21.10;85.00
68301;BME280;55146;47.468;18.806;2023-07-30T04:43:06;99584.94;;;21.13;85.25
68301;BME280;55146;47.468;18.806;2023-07-30T04:45:33;99575.50;;;21.18;85.25
68301;BME280;55146;47.468;18.806;2023-07-30T04:47:58;99584.91;;;21.25;85.36
68301;BME280;55146;47.468;18.806;2023-07-30T04:50:24;99592.59;;;21.28;85.39
68301;BME280;55146;47.468;18.806;2023-07-30T04:52:49;99591.41;;;21.29;85.34
68301;BME280;55146;47.468;18.806;2023-07-30T04:55:14;99584.28;;;21.32;85.67
68301;BME280;55146;47.468;18.806;2023-07-30T04:57:40;99594.41;;;21.36;85.64
68301;BME280;55146;47.468;18.806;2023-07-30T05:00:06;99598.94;;;21.41;85.68
68301;BME280;55146;47.468;18.806;2023-07-30T05:02:32;99604.63;;;21.45;85.66
68301;BME280;55146;47.468;18.806;2023-07-30T05:04:57;99602.28;;;21.47;85.79
68301;BME280;55146;47.468;18.806;2023-07-30T05:07:23;99603.09;;;21.47;85.91
68301;BME280;55146;47.468;18.806;2023-07-30T05:09:48;99602.28;;;21.47;85.64
68301;BME280;55146;47.468;18.806;2023-07-30T05:12:13;99611.50;;;21.47;85.66
68301;BME280;55146;47.468;18.806;2023-07-30T05:14:40;99609.94;;;21.50;85.72
68301;BME280;55146;47.468;18.806;2023-07-30T05:17:07;99601.19;;;21.51;85.79
68301;BME280;55146;47.468;18.806;2023-07-30T05:19:32;99602.56;;;21.57;85.96
68301;BME280;55146;47.468;18.806;2023-07-30T05:21:58;99593.88;;;21.62;85.97
68301;BME280;55146;47.468;18.806;2023-07-30T05:24:25;99593.19;;;21.65;85.98
68301;BME280;55146;47.468;18.806;2023-07-30T05:26:50;99586.50;;;21.70;85.78
68301;BME280;55146;47.468;18.806;2023-07-30T05:29:15;99592.16;;;21.73;85.58
68301;BME280;55146;47.468;18.806;2023-07-30T05:31:41;99586.69;;;21.77;85.58
68301;BME280;55146;47.468;18.806;2023-07-30T05:34:06;99595.16;;;21.80;85.56
68301;BME280;55146;47.468;18.806;2023-07-30T05:36:32;99598.41;;;21.83;84.72
68301;BME280;55146;47.468;18.806;2023-07-30T05:38:57;99605.28;;;21.85;84.02
68301;BME280;55146;47.468;18.806;2023-07-30T05:41:22;99598.50;;;21.86;83.87
68301;BME280;55146;47.468;18.806;2023-07-30T05:43:48;99596.63;;;21.90;83.85
68301;BME280;55146;47.468;18.806;2023-07-30T05:46:14;99599.16;;;21.95;84.25
68301;BME280;55146;47.468;18.806;2023-07-30T05:48:39;99607.66;;;21.99;84.52
68301;BME280;55146;47.468;18.806;2023-07-30T05:51:05;99606.94;;;22.02;84.19
68301;BME280;55146;47.468;18.806;2023-07-30T05:53:30;99605.66;;;21.99;83.43
68301;BME280;55146;47.468;18.806;2023-07-30T05:55:56;99604.13;;;22.02;83.35
68301;BME280;55146;47.468;18.806;2023-07-30T05:58:22;99609.81;;;22.05;83.14
68301;BME280;55146;47.468;18.806;2023-07-30T06:00:47;99611.97;;;22.12;83.38
68301;BME280;55146;47.468;18.806;2023-07-30T06:03:12;99618.75;;;22.11;82.79
68301;BME280;55146;47.468;18.806;2023-07-30T06:05:41;99618.03;;;22.14;82.41
68301;BME280;55146;47.468;18.806;2023-07-30T06:08:07;99606.56;;;22.19;82.79
68301;BME280;55146;47.468;18.806;2023-07-30T06:10:39;99613.50;;;22.25;83.23
68301;BME280;55146;47.468;18.806;2023-07-30T06:13:05;99615.66;;;22.32;83.77
68301;BME280;55146;47.468;18.806;2023-07-30T06:15:34;99608.59;;;22.38;83.71
68301;BME280;55146;47.468;18.806;2023-07-30T06:18:03;99609.94;;;22.44;82.87
68301;BME280;55146;47.468;18.806;2023-07-30T06:20:28;99618.94;;;22.53;82.45
68301;BME280;55146;47.468;18.806;2023-07-30T06:22:54;99610.34;;;22.62;81.91
68301;BME280;55146;47.468;18.806;2023-07-30T06:25:19;99610.84;;;22.67;81.30
68301;BME280;55146;47.468;18.806;2023-07-30T06:27:44;99606.53;;;22.70;80.11
68301;BME280;55146;47.468;18.806;2023-07-30T06:30:10;99612.75;;;22.79;80.33
68301;BME280;55146;47.468;18.806;2023-07-30T06:32:36;99624.22;;;22.89;80.50
68301;BME280;55146;47.468;18.806;2023-07-30T06:35:01;99613.06;;;22.93;80.27
68301;BME280;55146;47.468;18.806;2023-07-30T06:37:28;99614.22;;;22.92;80.90
68301;BME280;55146;47.468;18.806;2023-07-30T06:39:53;99612.25;;;22.92;80.40
68301;BME280;55146;47.468;18.806;2023-07-30T06:42:19;99619.31;;;22.86;79.92
68301;BME280;55146;47.468;18.806;2023-07-30T06:44:44;99622.88;;;22.83;80.53
68301;BME280;55146;47.468;18.806;2023-07-30T06:47:11;99632.00;;;22.80;81.24
68301;BME280;55146;47.468;18.806;2023-07-30T06:49:36;99639.91;;;22.75;81.63
68301;BME280;55146;47.468;18.806;2023-07-30T06:52:02;99646.59;;;22.70;81.76
68301;BME280;55146;47.468;18.806;2023-07-30T06:54:29;99650.75;;;22.60;82.61
68301;BME280;55146;47.468;18.806;2023-07-30T06:56:56;99657.41;;;22.52;83.17
68301;BME280;55146;47.468;18.806;2023-07-30T06:59:21;99664.00;;;22.44;84.00
68301;BME280;55146;47.468;18.806;2023-07-30T07:01:47;99656.72;;;22.24;85.48
68301;BME280;55146;47.468;18.806;2023-07-30T07:04:12;99668.19;;;22.19;86.62
68301;BME280;55146;47.468;18.806;2023-07-30T07:06:37;99673.87;;;22.23;86.09
68301;BME280;55146;47.468;18.806;2023-07-30T07:09:03;99676.53;;;22.15;87.14
68301;BME280;55146;47.468;18.806;2023-07-30T07:11:28;99675.19;;;22.09;86.40
68301;BME280;55146;47.468;18.806;2023-07-30T07:14:01;99668.47;;;21.98;87.87
68301;BME280;55146;47.468;18.806;2023-07-30T07:16:29;99684.09;;;21.99;87.44
68301;BME280;55146;47.468;18.806;2023-07-30T07:18:54;99686.88;;;21.84;87.69
68301;BME280;55146;47.468;18.806;2023-07-30T07:21:19;99692.62;;;21.75;87.48
68301;BME280;55146;47.468;18.806;2023-07-30T07:23:45;99691.81;;;21.74;86.68
68301;BME280;55146;47.468;18.806;2023-07-30T07:26:11;99691.00;;;21.74;87.29
68301;BME280;55146;47.468;18.806;2023-07-30T07:28:39;99690.56;;;21.72;87.29
68301;BME280;55146;47.468;18.806;2023-07-30T07:31:05;99699.31;;;21.86;86.58
68301;BME280;55146;47.468;18.806;2023-07-30T07:33:31;99697.16;;;21.79;86.63
68301;BME280;55146;47.468;18.806;2023-07-30T07:36:07;99697.75;;;21.73;87.87
68301;BME280;55146;47.468;18.806;2023-07-30T07:38:33;99694.88;;;21.69;87.91
68301;BME280;55146;47.468;18.806;2023-07-30T07:41:00;99697.13;;;21.64;88.19
68301;BME280;55146;47.468;18.806;2023-07-30T07:43:25;99698.38;;;21.66;88.31
68301;BME280;55146;47.468;18.806;2023-07-30T07:45:51;99707.59;;;21.67;88.15
68301;BME280;55146;47.468;18.806;2023-07-30T07:48:17;99708.69;;;21.62;88.20
68301;BME280;55146;47.468;18.806;2023-07-30T07:50:42;99709.66;;;21.54;89.15
68301;BME280;55146;47.468;18.806;2023-07-30T07:53:07;99718.03;;;21.54;89.78
68301;BME280;55146;47.468;18.806;2023-07-30T07:55:33;99725.47;;;21.62;89.92
68301;BME280;55146;47.468;18.806;2023-07-30T07:57:58;99710.31;;;21.63;90.60
68301;BME280;55146;47.468;18.806;2023-07-30T08:00:23;99707.50;;;21.63;90.36
68301;BME280;55146;47.468;18.806;2023-07-30T08:02:49;99710.78;;;21.65;91.10
68301;BME280;55146;47.468;18.806;2023-07-30T08:05:14;99707.16;;;21.65;91.67
68301;BME280;55146;47.468;18.806;2023-07-30T08:07:40;99715.44;;;21.61;91.85
68301;BME280;55146;47.468;18.806;2023-07-30T08:10:05;99712.91;;;21.56;91.94
68301;BME280;55146;47.468;18.806;2023-07-30T08:12:32;99717.81;;;21.59;92.08
68301;BME280;55146;47.468;18.806;2023-07-30T08:14:58;99709.16;;;21.64;92.22
68301;BME280;55146;47.468;18.806;2023-07-30T08:17:24;99710.06;;;21.68;92.36
68301;BME280;55146;47.468;18.806;2023-07-30T08:19:49;99704.91;;;21.70;92.17
68301;BME280;55146;47.468;18.806;2023-07-30T08:22:15;99703.37;;;21.73;92.17
68301;BME280;55146;47.468;18.806;2023-07-30T08:24:40;99703.13;;;21.78;92.12
68301;BME280;55146;47.468;18.806;2023-07-30T08:27:05;99708.00;;;21.81;92.08
68301;BME280;55146;47.468;18.806;2023-07-30T08:29:31;99703.69;;;21.84;92.19
68301;BME280;55146;47.468;18.806;2023-07-30T08:31:56;99705.41;;;21.88;92.47
68301;BME280;55146;47.468;18.806;2023-07-30T08:34:22;99708.75;;;21.94;92.29
68301;BME280;55146;47.468;18.806;2023-07-30T08:36:48;99696.72;;;21.93;91.59
68301;BME280;55146;47.468;18.806;2023-07-30T08:39:13;99697.22;;;21.95;91.85
68301;BME280;55146;47.468;18.806;2023-07-30T08:41:39;99694.97;;;22.01;92.16
68301;BME280;55146;47.468;18.806;2023-07-30T08:44:06;99691.88;;;22.06;91.96
68301;BME280;55146;47.468;18.806;2023-07-30T08:46:31;99693.88;;;22.05;91.11
68301;BME280;55146;47.468;18.806;2023-07-30T08:48:57;99687.56;;;22.08;91.79
68301;BME280;55146;47.468;18.806;2023-07-30T08:51:23;99683.31;;;22.14;92.78
68301;BME280;55146;47.468;18.806;2023-07-30T08:53:53;99696.69;;;22.21;93.13
68301;BME280;55146;47.468;18.806;2023-07-30T08:56:21;99693.25;;;22.28;92.83
68301;BME280;55146;47.468;18.806;2023-07-30T08:58:47;99693.69;;;22.30;92.48
68301;BME280;55146;47.468;18.806;2023-07-30T09:01:15;99704.19;;;22.33;92.32
68301;BME280;55146;47.468;18.806;2023-07-30T09:03:42;99708.34;;;22.39;91.72
68301;BME280;55146;47.468;18.806;2023-07-30T09:06:08;99707.25;;;22.43;91.76
68301;BME280;55146;47.468;18.806;2023-07-30T09:08:34;99709.34;;;22.46;91.72
68301;BME280;55146;47.468;18.806;2023-07-30T09:11:11;99708.66;;;22.53;91.82
68301;BME280;55146;47.468;18.806;2023-07-30T09:13:38;99707.94;;;22.56;91.20
68301;BME280;55146;47.468;18.806;2023-07-30T09:16:11;99707.66;;;22.61;91.62
68301;BME280;55146;47.468;18.806;2023-07-30T09:18:46;99711.00;;;22.67;92.34
68301;BME280;55146;47.468;18.806;2023-07-30T09:21:13;99710.94;;;22.63;92.48
68301;BME280;55146;47.468;18.806;2023-07-30T09:23:43;99714.97;;;22.66;92.89
68301;BME280;55146;47.468;18.806;2023-07-30T09:26:09;99719.69;;;22.62;93.21
68301;BME280;55146;47.468;18.806;2023-07-30T09:28:34;99710.47;;;22.61;93.30
68301;BME280;55146;47.468;18.806;2023-07-30T09:31:07;99719.25;;;22.59;91.74
68301;BME280;55146;47.468;18.806;2023-07-30T09:33:40;99720.06;;;22.60;92.33
68301;BME280;55146;47.468;18.806;2023-07-30T09:36:07;99709.59;;;22.57;92.04
68301;BME280;55146;47.468;18.806;2023-07-30T09:38:38;99704.78;;;22.57;91.96
68301;BME280;55146;47.468;18.806;2023-07-30T09:41:04;99705.31;;;22.63;92.20
68301;BME280;55146;47.468;18.806;2023-07-30T09:43:32;99706.94;;;22.64;90.74
68301;BME280;55146;47.468;18.806;2023-07-30T09:46:02;99698.53;;;22.64;91.17
68301;BME280;55146;47.468;18.806;2023-07-30T09:48:29;99704.97;;;22.65;92.11
68301;BME280;55146;47.468;18.806;2023-07-30T09:51:03;99707.84;;;22.68;92.11
68301;BME280;55146;47.468;18.806;2023-07-30T09:53:33;99707.47;;;22.70;91.83
68301;BME280;55146;47.468;18.806;2023-07-30T09:56:05;99714.62;;;22.67;91.89
68301;BME280;55146;47.468;18.806;2023-07-30T09:58:32;99710.94;;;22.63;92.29
68301;BME280;55146;47.468;18.806;2023-07-30T10:01:01;99712.09;;;22.62;92.40
68301;BME280;55146;47.468;18.806;2023-07-30T10:03:28;99714.09;;;22.62;92.69
68301;BME280;55146;47.468;18.806;2023-07-30T10:06:02;99701.69;;;22.63;93.24
68301;BME280;55146;47.468;18.806;2023-07-30T10:08:30;99699.19;;;22.57;93.57
68301;BME280;55146;47.468;18.806;2023-07-30T10:10:57;99697.09;;;22.54;93.54
68301;BME280;55146;47.468;18.806;2023-07-30T10:13:24;99696.50;;;22.45;93.02
68301;BME280;55146;47.468;18.806;2023-07-30T10:15:49;99698.19;;;22.50;92.99
68301;BME280;55146;47.468;18.806;2023-07-30T10:18:15;99697.09;;;22.54;93.18
68301;BME280;55146;47.468;18.806;2023-07-30T10:20:52;99687.97;;;22.57;93.66
68301;BME280;55146;47.468;18.806;2023-07-30T10:23:17;99691.31;;;22.63;93.77
68301;BME280;55146;47.468;18.806;2023-07-30T10:25:49;99697.34;;;22.65;93.55
68301;BME280;55146;47.468;18.806;2023-07-30T10:31:06;99689.84;;;22.69;92.23
68301;BME280;55146;47.468;18.806;2023-07-30T10:33:52;99684.53;;;22.64;91.77
68301;BME280;55146;47.468;18.806;2023-07-30T10:36:38;99686.88;;;22.62;92.52
68301;BME280;55146;47.468;18.806;2023-07-30T10:39:17;99683.88;;;22.55;93.71
68301;BME280;55146;47.468;18.806;2023-07-30T10:41:54;99683.00;;;22.51;92.95
68301;BME280;55146;47.468;18.806;2023-07-30T10:44:30;99686.34;;;22.56;92.95
68301;BME280;55146;47.468;18.806;2023-07-30T10:46:57;99685.16;;;22.57;92.70
68301;BME280;55146;47.468;18.806;2023-07-30T10:49:23;99691.66;;;22.62;92.95
68301;BME280;55146;47.468;18.806;2023-07-30T10:51:51;99687.75;;;22.66;93.17
68301;BME280;55146;47.468;18.806;2023-07-30T10:54:18;99683.97;;;22.74;93.01
68301;BME280;55146;47.468;18.806;2023-07-30T10:56:43;99680.59;;;22.69;92.62
68301;BME280;55146;47.468;18.806;2023-07-30T10:59:12;99690.13;;;22.64;93.04
68301;BME280;55146;47.468;18.806;2023-07-30T11:01:38;99680.72;;;22.56;92.90
68301;BME280;55146;47.468;18.806;2023-07-30T11:06:36;99686.53;;;22.48;93.53
68301;BME280;55146;47.468;18.806;2023-07-30T11:09:02;99689.94;;;22.57;93.54
68301;BME280;55146;47.468;18.806;2023-07-30T11:11:27;99696.91;;;22.63;93.49
68301;BME280;55146;47.468;18.806;2023-07-30T11:13:53;99699.44;;;22.68;93.35
68301;BME280;55146;47.468;18.806;2023-07-30T11:16:19;99700.88;;;22.62;94.80
68301;BME280;55146;47.468;18.806;2023-07-30T11:18:44;99695.72;;;22.64;95.04
68301;BME280;55146;47.468;18.806;2023-07-30T11:21:18;99693.88;;;22.72;93.89
68301;BME280;55146;47.468;18.806;2023-07-30T11:23:45;99699.50;;;22.72;93.45
68301;BME280;55146;47.468;18.806;2023-07-30T11:26:19;99697.19;;;22.74;90.64
68301;BME280;55146;47.468;18.806;2023-07-30T11:28:45;99695.25;;;22.78;91.39
68301;BME280;55146;47.468;18.806;2023-07-30T11:31:11;99696.59;;;22.84;91.38
68301;BME280;55146;47.468;18.806;2023-07-30T11:33:42;99699.16;;;22.89;90.97
68301;BME280;55146;47.468;18.806;2023-07-30T11:36:10;99699.28;;;22.96;90.80
68301;BME280;55146;47.468;18.806;2023-07-30T11:38:37;99703.34;;;22.98;89.60
68301;BME280;55146;47.468;18.806;2023-07-30T11:41:03;99701.13;;;22.88;90.70
68301;BME280;55146;47.468;18.806;2023-07-30T11:43:30;99717.06;;;22.84;91.64
68301;BME280;55146;47.468;18.806;2023-07-30T11:46:10;99700.69;;;22.86;92.74
68301;BME280;55146;47.468;18.806;2023-07-30T11:48:37;99699.50;;;22.87;91.50
68301;BME280;55146;47.468;18.806;2023-07-30T11:51:03;99695.72;;;22.64;90.29
68301;BME280;55146;47.468;18.806;2023-07-30T11:53:56;99697.84;;;22.36;91.67
68301;BME280;55146;47.468;18.806;2023-07-30T11:56:32;99719.72;;;21.99;92.15
68301;BME280;55146;47.468;18.806;2023-07-30T11:59:05;99710.87;;;21.69;89.28
68301;BME280;55146;47.468;18.806;2023-07-30T12:01:32;99712.22;;;21.59;90.02
68301;BME280;55146;47.468;18.806;2023-07-30T12:04:01;99716.22;;;21.46;91.49
68301;BME280;55146;47.468;18.806;2023-07-30T12:11:47;99704.03;;;21.54;93.23
68301;BME280;55146;47.468;18.806;2023-07-30T12:14:13;99693.09;;;21.77;92.52
68301;BME280;55146;47.468;18.806;2023-07-30T12:16:39;99697.81;;;21.89;91.61
68301;BME280;55146;47.468;18.806;2023-07-30T12:19:04;99691.94;;;21.94;92.84
68301;BME280;55146;47.468;18.806;2023-07-30T12:21:30;99686.81;;;21.96;90.71
68301;BME280;55146;47.468;18.806;2023-07-30T12:23:55;99686.22;;;21.74;91.59
68301;BME280;55146;47.468;18.806;2023-07-30T12:26:21;99683.16;;;21.79;90.73
68301;BME280;55146;47.468;18.806;2023-07-30T12:28:46;99684.69;;;21.77;92.50
68301;BME280;55146;47.468;18.806;2023-07-30T12:31:11;99672.13;;;21.87;92.29
68301;BME280;55146;47.468;18.806;2023-07-30T12:33:36;99667.25;;;21.84;93.20
68301;BME280;55146;47.468;18.806;2023-07-30T12:36:02;99668.72;;;21.93;93.79
68301;BME280;55146;47.468;18.806;2023-07-30T12:38:27;99663.16;;;22.09;93.41
68301;BME280;55146;47.468;18.806;2023-07-30T12:40:53;99656.44;;;22.29;92.88
68301;BME280;55146;47.468;18.806;2023-07-30T12:43:18;99657.87;;;22.39;89.49
68301;BME280;55146;47.468;18.806;2023-07-30T12:45:47;99646.44;;;22.47;90.95
68301;BME280;55146;47.468;18.806;2023-07-30T12:48:12;99646.78;;;22.62;87.99
68301;BME280;55146;47.468;18.806;2023-07-30T12:50:38;99649.22;;;22.63;87.18
68301;BME280;55146;47.468;18.806;2023-07-30T12:53:04;99649.97;;;22.76;87.09
68301;BME280;55146;47.468;18.806;2023-07-30T12:55:29;99637.97;;;22.79;86.39
68301;BME280;55146;47.468;18.806;2023-07-30T12:57:55;99645.63;;;22.63;87.17
68301;BME280;55146;47.468;18.806;2023-07-30T13:00:20;99639.16;;;22.78;87.18